sensor_id;sensor_type;location;lat;lon;timestamp;pressure;altitude;pressure_sealevel;temperature;humidity
64908;BME280;69061;52.236;5.188;2023-08-30T00:00:28;100812.72;;;16.12;76.75
64908;BME280;69061;52.236;5.188;2023-08-30T00:02:55;100807.38;;;16.08;76.70
64908;BME280;69061;52.236;5.188;2023-08-30T00:05:21;100807.44;;;16.05;77.04
64908;BME280;69061;52.236;5.188;2023-08-30T00:07:48;100799.06;;;15.99;77.76
64908;BME280;69061;52.236;5.188;2023-08-30T00:10:15;100797.16;;;15.99;78.55
64908;BME280;69061;52.236;5.188;2023-08-30T00:12:41;100792.97;;;15.98;79.21
64908;BME280;69061;52.236;5.188;2023-08-30T00:15:10;100798.63;;;16.04;80.24
64908;BME280;69061;52.236;5.188;2023-08-30T00:17:37;100786.75;;;16.05;80.68
64908;BME280;69061;52.236;5.188;2023-08-30T00:20:05;100787.50;;;16.06;80.06
64908;BME280;69061;52.236;5.188;2023-08-30T00:22:34;100782.50;;;16.08;79.72
64908;BME280;69061;52.236;5.188;2023-08-30T00:25:01;100785.94;;;16.08;79.56
64908;BME280;69061;52.236;5.188;2023-08-30T00:27:28;100774.47;;;16.08;80.10
64908;BME280;69061;52.236;5.188;2023-08-30T00:29:55;100776.00;;;16.09;79.25
64908;BME280;69061;52.236;5.188;2023-08-30T00:32:23;100779.75;;;16.15;81.27
64908;BME280;69061;52.236;5.188;2023-08-30T00:34:50;100775.50;;;16.17;81.09
64908;BME280;69061;52.236;5.188;2023-08-30T00:37:17;100776.25;;;16.18;79.15
64908;BME280;69061;52.236;5.188;2023-08-30T00:39:44;100776.63;;;16.20;78.79
64908;BME280;69061;52.236;5.188;2023-08-30T00:42:12;100768.91;;;16.22;79.85
64908;BME280;69061;52.236;5.188;2023-08-30T00:44:38;100768.19;;;16.18;79.17
64908;BME280;69061;52.236;5.188;2023-08-30T00:47:06;100772.09;;;16.13;78.88
64908;BME280;69061;52.236;5.188;2023-08-30T00:49:35;100766.78;;;16.10;78.41
64908;BME280;69061;52.236;5.188;2023-08-30T00:52:04;100766.78;;;16.10;78.57
64908;BME280;69061;52.236;5.188;2023-08-30T00:54:35;100762.97;;;16.07;78.08
64908;BME280;69061;52.236;5.188;2023-08-30T00:57:02;100758.72;;;16.10;77.98
64908;BME280;69061;52.236;5.188;2023-08-30T00:59:32;100756.81;;;16.10;77.71
64908;BME280;69061;52.236;5.188;2023-08-30T01:01:59;100752.22;;;16.11;77.47
64908;BME280;69061;52.236;5.188;2023-08-30T01:04:27;100751.47;;;16.10;77.30
64908;BME280;69061;52.236;5.188;2023-08-30T01:06:56;100754.59;;;16.05;77.18
64908;BME280;69061;52.236;5.188;2023-08-30T01:09:24;100742.31;;;16.08;77.56
64908;BME280;69061;52.236;5.188;2023-08-30T01:12:00;100744.16;;;16.11;79.28
64908;BME280;69061;52.236;5.188;2023-08-30T01:14:34;100741.91;;;16.09;78.19
64908;BME280;69061;52.236;5.188;2023-08-30T01:17:07;100744.88;;;16.15;78.21
64908;BME280;69061;52.236;5.188;2023-08-30T01:19:42;100744.53;;;16.13;77.66
64908;BME280;69061;52.236;5.188;2023-08-30T01:22:29;100743.00;;;16.12;77.30
64908;BME280;69061;52.236;5.188;2023-08-30T01:25:16;100736.88;;;16.11;77.18
64908;BME280;69061;52.236;5.188;2023-08-30T01:27:47;100747.66;;;16.08;77.49
64908;BME280;69061;52.236;5.188;2023-08-30T01:30:16;100744.97;;;16.08;77.59
64908;BME280;69061;52.236;5.188;2023-08-30T01:32:44;100745.78;;;16.05;77.29
64908;BME280;69061;52.236;5.188;2023-08-30T01:35:12;100737.78;;;16.01;77.59
64908;BME280;69061;52.236;5.188;2023-08-30T01:37:43;100740.88;;;15.99;77.81
64908;BME280;69061;52.236;5.188;2023-08-30T01:40:11;100737.00;;;16.00;77.61
64908;BME280;69061;52.236;5.188;2023-08-30T01:42:38;100738.53;;;16.02;77.70
64908;BME280;69061;52.236;5.188;2023-08-30T01:45:09;100732.03;;;16.03;78.06
64908;BME280;69061;52.236;5.188;2023-08-30T01:47:39;100726.25;;;16.04;77.77
64908;BME280;69061;52.236;5.188;2023-08-30T01:50:08;100724.69;;;16.07;78.24
64908;BME280;69061;52.236;5.188;2023-08-30T01:52:36;100718.53;;;16.10;77.79
64908;BME280;69061;52.236;5.188;2023-08-30T01:55:05;100726.94;;;16.12;78.62
64908;BME280;69061;52.236;5.188;2023-08-30T01:57:34;100726.97;;;16.08;78.36
64908;BME280;69061;52.236;5.188;2023-08-30T02:00:01;100725.06;;;16.09;78.82
64908;BME280;69061;52.236;5.188;2023-08-30T02:02:32;100717.72;;;16.13;78.98
64908;BME280;69061;52.236;5.188;2023-08-30T02:04:59;100712.31;;;16.16;78.60
64908;BME280;69061;52.236;5.188;2023-08-30T02:07:30;100715.34;;;16.19;78.30
64908;BME280;69061;52.236;5.188;2023-08-30T02:10:02;100708.44;;;16.21;78.00
64908;BME280;69061;52.236;5.188;2023-08-30T02:12:37;100707.25;;;16.22;77.41
64908;BME280;69061;52.236;5.188;2023-08-30T02:15:07;100703.78;;;16.25;78.10
64908;BME280;69061;52.236;5.188;2023-08-30T02:17:37;100707.91;;;16.30;78.69
64908;BME280;69061;52.236;5.188;2023-08-30T02:20:07;100706.00;;;16.30;77.48
64908;BME280;69061;52.236;5.188;2023-08-30T02:22:34;100698.81;;;16.24;78.25
64908;BME280;69061;52.236;5.188;2023-08-30T02:25:01;100712.94;;;16.28;78.15
64908;BME280;69061;52.236;5.188;2023-08-30T02:27:30;100707.56;;;16.28;77.97
64908;BME280;69061;52.236;5.188;2023-08-30T02:29:57;100706.78;;;16.27;77.04
64908;BME280;69061;52.236;5.188;2023-08-30T02:32:24;100701.44;;;16.27;77.89
64908;BME280;69061;52.236;5.188;2023-08-30T02:34:53;100696.06;;;16.27;77.15
64908;BME280;69061;52.236;5.188;2023-08-30T02:37:20;100704.47;;;16.29;76.20
64908;BME280;69061;52.236;5.188;2023-08-30T02:39:46;100694.91;;;16.28;76.54
64908;BME280;69061;52.236;5.188;2023-08-30T02:42:14;100681.25;;;16.19;76.29
64908;BME280;69061;52.236;5.188;2023-08-30T02:44:41;100686.97;;;16.21;77.10
64908;BME280;69061;52.236;5.188;2023-08-30T02:47:08;100690.09;;;16.16;76.59
64908;BME280;69061;52.236;5.188;2023-08-30T02:49:35;100686.28;;;16.17;77.71
64908;BME280;69061;52.236;5.188;2023-08-30T02:52:04;100687.03;;;16.17;76.52
64908;BME280;69061;52.236;5.188;2023-08-30T02:54:30;100679.38;;;16.16;76.71
64908;BME280;69061;52.236;5.188;2023-08-30T02:56:57;100676.00;;;16.12;75.88
64908;BME280;69061;52.236;5.188;2023-08-30T02:59:24;100678.66;;;16.12;75.83
64908;BME280;69061;52.236;5.188;2023-08-30T03:01:51;100677.16;;;16.11;76.51
64908;BME280;69061;52.236;5.188;2023-08-30T03:04:18;100669.84;;;16.11;76.73
64908;BME280;69061;52.236;5.188;2023-08-30T03:06:44;100665.59;;;16.14;77.31
64908;BME280;69061;52.236;5.188;2023-08-30T03:09:13;100667.53;;;16.13;77.59
64908;BME280;69061;52.236;5.188;2023-08-30T03:11:40;100656.41;;;16.15;79.91
64908;BME280;69061;52.236;5.188;2023-08-30T03:14:07;100654.84;;;16.17;80.79
64908;BME280;69061;52.236;5.188;2023-08-30T03:16:34;100653.69;;;16.19;80.03
64908;BME280;69061;52.236;5.188;2023-08-30T03:19:01;100642.56;;;16.20;80.60
64908;BME280;69061;52.236;5.188;2023-08-30T03:21:29;100644.41;;;16.23;81.10
64908;BME280;69061;52.236;5.188;2023-08-30T03:23:55;100629.25;;;16.13;78.50
64908;BME280;69061;52.236;5.188;2023-08-30T03:26:24;100649.19;;;16.12;79.79
64908;BME280;69061;52.236;5.188;2023-08-30T03:28:51;100644.28;;;16.07;80.15
64908;BME280;69061;52.236;5.188;2023-08-30T03:31:19;100642.03;;;16.02;79.66
64908;BME280;69061;52.236;5.188;2023-08-30T03:33:47;100634.44;;;15.96;79.65
64908;BME280;69061;52.236;5.188;2023-08-30T03:36:16;100634.09;;;15.94;78.44
64908;BME280;69061;52.236;5.188;2023-08-30T03:38:43;100626.06;;;15.94;77.93
64908;BME280;69061;52.236;5.188;2023-08-30T03:41:11;100623.84;;;15.89;77.67
64908;BME280;69061;52.236;5.188;2023-08-30T03:43:41;100622.69;;;15.90;78.05
64908;BME280;69061;52.236;5.188;2023-08-30T03:46:07;100622.28;;;15.92;78.60
64908;BME280;69061;52.236;5.188;2023-08-30T03:48:34;100616.16;;;15.91;78.18
64908;BME280;69061;52.236;5.188;2023-08-30T03:51:01;100606.59;;;15.90;78.48
64908;BME280;69061;52.236;5.188;2023-08-30T03:53:28;100606.59;;;15.90;78.68
64908;BME280;69061;52.236;5.188;2023-08-30T03:55:56;100603.16;;;15.90;78.63
64908;BME280;69061;52.236;5.188;2023-08-30T03:58:23;100590.16;;;15.88;78.33
64908;BME280;69061;52.236;5.188;2023-08-30T04:00:51;100592.84;;;15.88;78.56
64908;BME280;69061;52.236;5.188;2023-08-30T04:03:18;100594.34;;;15.89;78.10
64908;BME280;69061;52.236;5.188;2023-08-30T04:05:45;100586.75;;;15.84;77.39
64908;BME280;69061;52.236;5.188;2023-08-30T04:08:12;100591.06;;;15.78;77.29
64908;BME280;69061;52.236;5.188;2023-08-30T04:10:40;100595.31;;;15.72;77.38
64908;BME280;69061;52.236;5.188;2023-08-30T04:13:09;100594.28;;;15.65;77.03
64908;BME280;69061;52.236;5.188;2023-08-30T04:15:37;100589.00;;;15.58;77.64
64908;BME280;69061;52.236;5.188;2023-08-30T04:18:07;100593.75;;;15.47;78.62
64908;BME280;69061;52.236;5.188;2023-08-30T04:20:34;100596.53;;;15.40;78.96
64908;BME280;69061;52.236;5.188;2023-08-30T04:23:02;100596.25;;;15.30;79.61
64908;BME280;69061;52.236;5.188;2023-08-30T04:25:29;100597.03;;;15.27;80.60
64908;BME280;69061;52.236;5.188;2023-08-30T04:27:57;100591.72;;;15.24;80.10
64908;BME280;69061;52.236;5.188;2023-08-30T04:30:24;100589.03;;;15.24;79.20
64908;BME280;69061;52.236;5.188;2023-08-30T04:32:51;100590.94;;;15.23;80.14
64908;BME280;69061;52.236;5.188;2023-08-30T04:35:19;100590.19;;;15.23;79.08
64908;BME280;69061;52.236;5.188;2023-08-30T04:37:46;100583.31;;;15.22;78.02
64908;BME280;69061;52.236;5.188;2023-08-30T04:40:14;100576.13;;;15.15;78.30
64908;BME280;69061;52.236;5.188;2023-08-30T04:42:41;100579.19;;;15.17;78.55
64908;BME280;69061;52.236;5.188;2023-08-30T04:45:08;100573.50;;;15.11;78.14
64908;BME280;69061;52.236;5.188;2023-08-30T04:47:36;100575.81;;;15.09;78.43
64908;BME280;69061;52.236;5.188;2023-08-30T04:50:03;100580.06;;;15.07;79.24
64908;BME280;69061;52.236;5.188;2023-08-30T04:52:31;100570.50;;;15.06;78.82
64908;BME280;69061;52.236;5.188;2023-08-30T04:54:59;100565.13;;;15.06;78.78
64908;BME280;69061;52.236;5.188;2023-08-30T04:57:25;100555.16;;;15.10;79.84
64908;BME280;69061;52.236;5.188;2023-08-30T04:59:52;100554.41;;;15.09;78.71
64908;BME280;69061;52.236;5.188;2023-08-30T05:02:19;100552.94;;;15.05;78.72
64908;BME280;69061;52.236;5.188;2023-08-30T05:04:46;100561.31;;;15.07;78.77
64908;BME280;69061;52.236;5.188;2023-08-30T05:07:13;100547.91;;;15.10;77.89
64908;BME280;69061;52.236;5.188;2023-08-30T05:09:44;100549.38;;;15.15;77.45
64908;BME280;69061;52.236;5.188;2023-08-30T05:12:11;100548.22;;;15.16;78.42
64908;BME280;69061;52.236;5.188;2023-08-30T05:14:38;100547.84;;;15.14;77.27
64908;BME280;69061;52.236;5.188;2023-08-30T05:17:06;100536.78;;;15.12;77.24
64908;BME280;69061;52.236;5.188;2023-08-30T05:19:33;100530.75;;;15.04;77.18
64908;BME280;69061;52.236;5.188;2023-08-30T05:22:00;100538.38;;;15.06;77.54
64908;BME280;69061;52.236;5.188;2023-08-30T05:24:27;100534.56;;;15.07;78.66
64908;BME280;69061;52.236;5.188;2023-08-30T05:26:55;100542.56;;;15.07;78.28
64908;BME280;69061;52.236;5.188;2023-08-30T05:29:22;100546.03;;;15.07;78.14
64908;BME280;69061;52.236;5.188;2023-08-30T05:31:48;100538.34;;;15.09;77.39
64908;BME280;69061;52.236;5.188;2023-08-30T05:34:15;100545.25;;;15.07;78.02
64908;BME280;69061;52.236;5.188;2023-08-30T05:36:42;100563.25;;;15.06;77.61
64908;BME280;69061;52.236;5.188;2023-08-30T05:39:09;100558.28;;;15.05;77.46
64908;BME280;69061;52.236;5.188;2023-08-30T05:41:35;100565.13;;;15.06;76.64
64908;BME280;69061;52.236;5.188;2023-08-30T05:44:06;100566.66;;;15.07;78.46
64908;BME280;69061;52.236;5.188;2023-08-30T05:46:34;100569.25;;;15.14;79.14
64908;BME280;69061;52.236;5.188;2023-08-30T05:49:01;100563.53;;;15.15;77.81
64908;BME280;69061;52.236;5.188;2023-08-30T05:51:29;100560.38;;;15.21;77.19
64908;BME280;69061;52.236;5.188;2023-08-30T05:53:56;100560.38;;;15.21;77.27
64908;BME280;69061;52.236;5.188;2023-08-30T05:56:23;100548.94;;;15.20;76.81
64908;BME280;69061;52.236;5.188;2023-08-30T05:58:50;100552.75;;;15.19;76.76
64908;BME280;69061;52.236;5.188;2023-08-30T06:01:20;100542.84;;;15.16;76.75
64908;BME280;69061;52.236;5.188;2023-08-30T06:03:46;100545.16;;;15.14;76.57
64908;BME280;69061;52.236;5.188;2023-08-30T06:06:13;100540.59;;;15.14;77.58
64908;BME280;69061;52.236;5.188;2023-08-30T06:08:40;100532.16;;;15.16;77.96
64908;BME280;69061;52.236;5.188;2023-08-30T06:11:07;100533.72;;;15.13;77.68
64908;BME280;69061;52.236;5.188;2023-08-30T06:13:34;100528.38;;;15.10;78.23
64908;BME280;69061;52.236;5.188;2023-08-30T06:16:00;100528.84;;;15.05;79.68
64908;BME280;69061;52.236;5.188;2023-08-30T06:18:31;100523.16;;;14.99;80.41
64908;BME280;69061;52.236;5.188;2023-08-30T06:20:58;100537.38;;;14.92;81.11
64908;BME280;69061;52.236;5.188;2023-08-30T06:23:25;100535.19;;;14.84;81.70
64908;BME280;69061;52.236;5.188;2023-08-30T06:25:55;100530.31;;;14.75;83.28
64908;BME280;69061;52.236;5.188;2023-08-30T06:28:23;100531.44;;;14.77;83.95
64908;BME280;69061;52.236;5.188;2023-08-30T06:30:50;100524.19;;;14.78;84.40
64908;BME280;69061;52.236;5.188;2023-08-30T06:33:17;100520.78;;;14.74;84.57
64908;BME280;69061;52.236;5.188;2023-08-30T06:35:47;100525.41;;;14.70;85.06
64908;BME280;69061;52.236;5.188;2023-08-30T06:38:14;100522.00;;;14.65;85.76
64908;BME280;69061;52.236;5.188;2023-08-30T06:40:43;100528.09;;;14.62;86.76
64908;BME280;69061;52.236;5.188;2023-08-30T06:43:10;100518.59;;;14.61;87.17
64908;BME280;69061;52.236;5.188;2023-08-30T06:45:38;100526.25;;;14.59;87.06
64908;BME280;69061;52.236;5.188;2023-08-30T06:48:06;100516.69;;;14.58;87.99
64908;BME280;69061;52.236;5.188;2023-08-30T06:50:33;100505.59;;;14.60;87.62
64908;BME280;69061;52.236;5.188;2023-08-30T06:53:01;100506.72;;;14.62;87.60
64908;BME280;69061;52.236;5.188;2023-08-30T06:55:28;100506.72;;;14.62;88.48
64908;BME280;69061;52.236;5.188;2023-08-30T06:57:55;100509.78;;;14.61;89.57
64908;BME280;69061;52.236;5.188;2023-08-30T07:00:22;100494.91;;;14.63;89.70
64908;BME280;69061;52.236;5.188;2023-08-30T07:02:49;100504.00;;;14.70;89.84
64908;BME280;69061;52.236;5.188;2023-08-30T07:05:15;100498.22;;;14.75;89.80
64908;BME280;69061;52.236;5.188;2023-08-30T07:07:42;100497.44;;;14.74;90.63
64908;BME280;69061;52.236;5.188;2023-08-30T07:10:11;100495.56;;;14.75;90.83
64908;BME280;69061;52.236;5.188;2023-08-30T07:12:38;100497.78;;;14.80;90.73
64908;BME280;69061;52.236;5.188;2023-08-30T07:15:05;100487.06;;;14.80;90.79
64908;BME280;69061;52.236;5.188;2023-08-30T07:17:33;100489.72;;;14.84;90.12
64908;BME280;69061;52.236;5.188;2023-08-30T07:19:59;100481.72;;;14.80;90.07
64908;BME280;69061;52.236;5.188;2023-08-30T07:22:26;100471.81;;;14.77;90.14
64908;BME280;69061;52.236;5.188;2023-08-30T07:24:55;100477.25;;;14.70;90.68
64908;BME280;69061;52.236;5.188;2023-08-30T07:27:24;100474.63;;;14.66;91.21
64908;BME280;69061;52.236;5.188;2023-08-30T07:29:53;100475.38;;;14.67;91.30
64908;BME280;69061;52.236;5.188;2023-08-30T07:32:20;100470.00;;;14.67;91.32
64908;BME280;69061;52.236;5.188;2023-08-30T07:34:47;100468.06;;;14.71;91.83
64908;BME280;69061;52.236;5.188;2023-08-30T07:37:18;100468.06;;;14.71;92.48
64908;BME280;69061;52.236;5.188;2023-08-30T07:39:46;100468.44;;;14.73;92.24
64908;BME280;69061;52.236;5.188;2023-08-30T07:42:13;100463.09;;;14.73;92.71
64908;BME280;69061;52.236;5.188;2023-08-30T07:44:42;100443.28;;;14.67;92.75
64908;BME280;69061;52.236;5.188;2023-08-30T07:47:08;100439.38;;;14.75;93.90
64908;BME280;69061;52.236;5.188;2023-08-30T07:49:36;100430.88;;;14.80;93.83
64908;BME280;69061;52.236;5.188;2023-08-30T07:52:03;100423.94;;;14.86;93.77
64908;BME280;69061;52.236;5.188;2023-08-30T07:54:30;100424.69;;;14.87;93.84
64908;BME280;69061;52.236;5.188;2023-08-30T07:56:57;100418.94;;;14.88;93.43
64908;BME280;69061;52.236;5.188;2023-08-30T07:59:24;100420.53;;;14.86;93.44
64908;BME280;69061;52.236;5.188;2023-08-30T08:01:52;100408.63;;;14.87;93.80
64908;BME280;69061;52.236;5.188;2023-08-30T08:04:19;100418.16;;;14.91;93.17
64908;BME280;69061;52.236;5.188;2023-08-30T08:06:46;100423.84;;;14.93;93.35
64908;BME280;69061;52.236;5.188;2023-08-30T08:09:13;100430.00;;;14.90;94.32
64908;BME280;69061;52.236;5.188;2023-08-30T08:11:40;100427.59;;;14.99;94.34
64908;BME280;69061;52.236;5.188;2023-08-30T08:14:09;100423.66;;;15.08;94.12
64908;BME280;69061;52.236;5.188;2023-08-30T08:16:35;100428.50;;;15.16;96.15
64908;BME280;69061;52.236;5.188;2023-08-30T08:19:04;100425.59;;;15.35;95.08
64908;BME280;69061;52.236;5.188;2023-08-30T08:21:31;100436.16;;;15.45;95.55
64908;BME280;69061;52.236;5.188;2023-08-30T08:23:58;100431.09;;;15.51;94.76
64908;BME280;69061;52.236;5.188;2023-08-30T08:26:25;100435.28;;;15.52;93.84
64908;BME280;69061;52.236;5.188;2023-08-30T08:28:53;100434.25;;;15.42;94.21
64908;BME280;69061;52.236;5.188;2023-08-30T08:31:21;100427.81;;;15.40;94.78
64908;BME280;69061;52.236;5.188;2023-08-30T08:33:50;100431.19;;;15.44;94.54
64908;BME280;69061;52.236;5.188;2023-08-30T08:36:20;100428.06;;;15.22;95.61
64908;BME280;69061;52.236;5.188;2023-08-30T08:38:46;100424.41;;;15.36;95.05
64908;BME280;69061;52.236;5.188;2023-08-30T08:41:15;100425.22;;;15.32;95.27
64908;BME280;69061;52.236;5.188;2023-08-30T08:43:43;100429.84;;;15.32;96.19
64908;BME280;69061;52.236;5.188;2023-08-30T08:46:11;100419.41;;;15.38;96.12
64908;BME280;69061;52.236;5.188;2023-08-30T08:48:40;100427.44;;;15.38;95.49
64908;BME280;69061;52.236;5.188;2023-08-30T08:51:07;100421.09;;;15.28;96.06
64908;BME280;69061;52.236;5.188;2023-08-30T08:53:37;100418.88;;;15.23;96.15
64908;BME280;69061;52.236;5.188;2023-08-30T08:56:06;100419.97;;;15.25;96.00
64908;BME280;69061;52.236;5.188;2023-08-30T08:58:36;100416.94;;;15.23;96.67
64908;BME280;69061;52.236;5.188;2023-08-30T09:01:03;100412.00;;;15.22;96.92
64908;BME280;69061;52.236;5.188;2023-08-30T09:03:32;100408.91;;;15.23;97.33
64908;BME280;69061;52.236;5.188;2023-08-30T09:06:02;100413.41;;;15.30;97.78
64908;BME280;69061;52.236;5.188;2023-08-30T09:08:29;100404.50;;;15.37;97.38
64908;BME280;69061;52.236;5.188;2023-08-30T09:10:58;100413.25;;;15.41;96.77
64908;BME280;69061;52.236;5.188;2023-08-30T09:13:24;100423.97;;;15.41;97.05
64908;BME280;69061;52.236;5.188;2023-08-30T09:15:51;100417.09;;;15.40;97.18
64908;BME280;69061;52.236;5.188;2023-08-30T09:18:18;100409.53;;;15.35;97.21
64908;BME280;69061;52.236;5.188;2023-08-30T09:20:45;100416.03;;;15.33;97.76
64908;BME280;69061;52.236;5.188;2023-08-30T09:23:19;100420.97;;;15.35;98.74
64908;BME280;69061;52.236;5.188;2023-08-30T09:25:46;100416.28;;;15.43;98.26
64908;BME280;69061;52.236;5.188;2023-08-30T09:28:15;100412.44;;;15.44;98.26
64908;BME280;69061;52.236;5.188;2023-08-30T09:30:49;100405.50;;;15.46;98.52
64908;BME280;69061;52.236;5.188;2023-08-30T09:33:20;100407.31;;;15.53;98.45
64908;BME280;69061;52.236;5.188;2023-08-30T09:35:47;100416.88;;;15.54;98.13
64908;BME280;69061;52.236;5.188;2023-08-30T09:38:17;100403.03;;;15.59;98.62
64908;BME280;69061;52.236;5.188;2023-08-30T09:40:44;100407.56;;;15.62;98.55
64908;BME280;69061;52.236;5.188;2023-08-30T09:43:11;100411.72;;;15.67;97.79
64908;BME280;69061;52.236;5.188;2023-08-30T09:45:40;100406.75;;;15.65;98.59
64908;BME280;69061;52.236;5.188;2023-08-30T09:48:08;100390.19;;;15.71;98.98
64908;BME280;69061;52.236;5.188;2023-08-30T09:50:35;100400.44;;;15.76;98.68
64908;BME280;69061;52.236;5.188;2023-08-30T09:53:07;100408.06;;;15.81;98.76
64908;BME280;69061;52.236;5.188;2023-08-30T09:55:35;100406.06;;;15.85;99.00
64908;BME280;69061;52.236;5.188;2023-08-30T09:58:02;100406.31;;;15.94;99.03
64908;BME280;69061;52.236;5.188;2023-08-30T10:00:30;100405.34;;;16.05;98.67
64908;BME280;69061;52.236;5.188;2023-08-30T10:03:00;100403.28;;;16.12;98.01
64908;BME280;69061;52.236;5.188;2023-08-30T10:05:28;100403.56;;;16.18;98.08
64908;BME280;69061;52.236;5.188;2023-08-30T10:07:56;100398.78;;;16.29;98.49
64908;BME280;69061;52.236;5.188;2023-08-30T10:10:23;100390.66;;;16.53;99.20
64908;BME280;69061;52.236;5.188;2023-08-30T10:12:51;100389.47;;;16.74;97.74
64908;BME280;69061;52.236;5.188;2023-08-30T10:15:21;100396.34;;;16.95;98.21
64908;BME280;69061;52.236;5.188;2023-08-30T10:17:52;100395.84;;;17.17;96.32
64908;BME280;69061;52.236;5.188;2023-08-30T10:20:22;100397.28;;;17.38;95.24
64908;BME280;69061;52.236;5.188;2023-08-30T10:22:51;100396.69;;;17.63;94.22
64908;BME280;69061;52.236;5.188;2023-08-30T10:25:21;100395.13;;;17.95;92.95
64908;BME280;69061;52.236;5.188;2023-08-30T10:27:50;100398.03;;;18.30;91.20
64908;BME280;69061;52.236;5.188;2023-08-30T10:30:19;100412.53;;;18.62;88.74
64908;BME280;69061;52.236;5.188;2023-08-30T10:32:48;100409.53;;;18.86;85.36
64908;BME280;69061;52.236;5.188;2023-08-30T10:35:18;100411.75;;;18.91;82.40
64908;BME280;69061;52.236;5.188;2023-08-30T10:37:55;100412.84;;;19.07;79.00
64908;BME280;69061;52.236;5.188;2023-08-30T10:40:22;100409.13;;;19.26;80.73
64908;BME280;69061;52.236;5.188;2023-08-30T10:42:59;100406.09;;;19.50;78.81
64908;BME280;69061;52.236;5.188;2023-08-30T10:45:26;100397.66;;;19.61;78.47
64908;BME280;69061;52.236;5.188;2023-08-30T10:47:57;100417.22;;;19.87;76.11
64908;BME280;69061;52.236;5.188;2023-08-30T10:50:28;100418.91;;;20.07;75.25
64908;BME280;69061;52.236;5.188;2023-08-30T10:52:58;100427.66;;;20.20;73.51
64908;BME280;69061;52.236;5.188;2023-08-30T10:55:25;100411.31;;;20.36;73.70
64908;BME280;69061;52.236;5.188;2023-08-30T10:58:00;100428.53;;;20.61;73.21
64908;BME280;69061;52.236;5.188;2023-08-30T11:00:29;100429.28;;;20.84;71.92
64908;BME280;69061;52.236;5.188;2023-08-30T11:02:56;100420.03;;;21.03;71.04
64908;BME280;69061;52.236;5.188;2023-08-30T11:05:24;100435.41;;;21.25;69.46
64908;BME280;69061;52.236;5.188;2023-08-30T11:07:52;100429.72;;;21.23;68.60
64908;BME280;69061;52.236;5.188;2023-08-30T11:10:20;100429.09;;;21.28;68.18
64908;BME280;69061;52.236;5.188;2023-08-30T11:12:48;100420.28;;;21.37;67.68
64908;BME280;69061;52.236;5.188;2023-08-30T11:15:16;100430.06;;;21.44;68.52
64908;BME280;69061;52.236;5.188;2023-08-30T11:17:44;100432.00;;;21.52;66.50
64908;BME280;69061;52.236;5.188;2023-08-30T11:20:13;100439.19;;;21.28;65.67
64908;BME280;69061;52.236;5.188;2023-08-30T11:22:43;100440.75;;;21.07;66.54
64908;BME280;69061;52.236;5.188;2023-08-30T11:25:11;100442.53;;;21.00;67.48
64908;BME280;69061;52.236;5.188;2023-08-30T11:27:40;100438.94;;;21.03;67.42
64908;BME280;69061;52.236;5.188;2023-08-30T11:30:09;100449.00;;;21.03;66.38
64908;BME280;69061;52.236;5.188;2023-08-30T11:32:37;100446.88;;;20.98;65.89
64908;BME280;69061;52.236;5.188;2023-08-30T11:35:06;100449.25;;;20.86;66.12
64908;BME280;69061;52.236;5.188;2023-08-30T11:37:33;100451.75;;;20.81;65.13
64908;BME280;69061;52.236;5.188;2023-08-30T11:40:01;100440.78;;;20.75;65.17
64908;BME280;69061;52.236;5.188;2023-08-30T11:42:30;100443.13;;;20.95;66.40
64908;BME280;69061;52.236;5.188;2023-08-30T11:45:00;100432.38;;;21.14;64.38
64908;BME280;69061;52.236;5.188;2023-08-30T11:47:27;100436.06;;;21.39;64.06
64908;BME280;69061;52.236;5.188;2023-08-30T11:49:55;100431.31;;;21.61;63.75
64908;BME280;69061;52.236;5.188;2023-08-30T11:52:23;100439.47;;;21.80;61.74
64908;BME280;69061;52.236;5.188;2023-08-30T11:54:51;100437.94;;;21.79;60.45
64908;BME280;69061;52.236;5.188;2023-08-30T11:57:18;100433.72;;;21.68;59.83
64908;BME280;69061;52.236;5.188;2023-08-30T11:59:46;100434.03;;;21.61;59.69
64908;BME280;69061;52.236;5.188;2023-08-30T12:02:16;100433.72;;;21.68;58.10
64908;BME280;69061;52.236;5.188;2023-08-30T12:04:45;100435.09;;;21.73;57.23
64908;BME280;69061;52.236;5.188;2023-08-30T12:07:21;100435.38;;;21.84;58.00
64908;BME280;69061;52.236;5.188;2023-08-30T12:09:48;100436.13;;;22.03;58.34
64908;BME280;69061;52.236;5.188;2023-08-30T12:12:16;100430.25;;;22.24;56.09
64908;BME280;69061;52.236;5.188;2023-08-30T12:14:43;100436.72;;;22.26;55.74
64908;BME280;69061;52.236;5.188;2023-08-30T12:17:10;100432.66;;;22.31;55.51
64908;BME280;69061;52.236;5.188;2023-08-30T12:19:39;100452.50;;;22.18;53.53
64908;BME280;69061;52.236;5.188;2023-08-30T12:22:07;100456.00;;;22.10;53.22
64908;BME280;69061;52.236;5.188;2023-08-30T12:24:41;100449.06;;;21.90;50.06
64908;BME280;69061;52.236;5.188;2023-08-30T12:27:08;100454.03;;;21.73;53.57
64908;BME280;69061;52.236;5.188;2023-08-30T12:29:35;100456.13;;;21.69;53.26
64908;BME280;69061;52.236;5.188;2023-08-30T12:32:03;100458.66;;;21.73;53.43
64908;BME280;69061;52.236;5.188;2023-08-30T12:34:30;100452.81;;;21.83;53.88
64908;BME280;69061;52.236;5.188;2023-08-30T12:36:59;100465.16;;;21.94;54.95
64908;BME280;69061;52.236;5.188;2023-08-30T12:39:27;100452.38;;;22.03;54.46
64908;BME280;69061;52.236;5.188;2023-08-30T12:41:54;100465.31;;;22.27;55.02
64908;BME280;69061;52.236;5.188;2023-08-30T12:44:21;100468.00;;;22.36;53.21
64908;BME280;69061;52.236;5.188;2023-08-30T12:46:48;100466.63;;;22.32;52.77
64908;BME280;69061;52.236;5.188;2023-08-30T12:49:15;100468.59;;;22.22;54.06
64908;BME280;69061;52.236;5.188;2023-08-30T12:51:42;100462.44;;;22.21;54.80
64908;BME280;69061;52.236;5.188;2023-08-30T12:54:10;100470.84;;;22.33;52.71